createdAt,value
2022-11-27T00:00:40.504Z,102151.16
2022-11-27T00:04:03.104Z,102158.72
2022-11-27T00:07:05.264Z,102169.44
2022-11-27T00:10:08.408Z,102174.97
2022-11-27T00:13:10.552Z,102175.84
2022-11-27T00:16:14.158Z,102173.88
2022-11-27T00:19:16.355Z,102176.44
2022-11-27T00:22:18.666Z,102160.25
2022-11-27T00:25:20.899Z,102166.19
2022-11-27T00:28:23.271Z,102170.53
2022-11-27T00:31:29.550Z,102170.09
2022-11-27T00:34:32.348Z,102153.09
2022-11-27T00:37:34.618Z,102166.38
2022-11-27T00:40:36.973Z,102165.38
2022-11-27T00:43:44.612Z,102160.97
2022-11-27T00:46:47.777Z,102154.88
2022-11-27T00:49:49.908Z,102154.56
2022-11-27T00:52:52.363Z,102156.53
2022-11-27T00:55:55.718Z,102142.97
2022-11-27T00:58:58.426Z,102142.97
2022-11-27T01:02:01.077Z,102151.47
2022-11-27T01:05:03.719Z,102144.84
2022-11-27T01:08:05.853Z,102138.63
2022-11-27T01:11:12.738Z,102142.97
2022-11-27T01:14:18.918Z,102141.13
2022-11-27T01:17:21.324Z,102141.13
2022-11-27T01:20:23.607Z,102142.09
2022-11-27T01:23:26.447Z,102132.56
2022-11-27T01:26:28.627Z,102138.84
2022-11-27T01:29:31.032Z,102148.03
2022-11-27T01:32:33.351Z,102148.50
2022-11-27T01:35:35.903Z,102165.38
2022-11-27T01:38:38.090Z,102163.41
2022-11-27T01:41:40.609Z,102164.66
2022-11-27T01:44:48.079Z,102169.53
2022-11-27T01:47:56.666Z,102160.69
2022-11-27T01:50:58.854Z,102172.59
2022-11-27T01:54:01.305Z,102176.25
2022-11-27T01:57:19.785Z,102161.59
2022-11-27T02:00:22.872Z,102166.03
2022-11-27T02:03:25.365Z,102162.50
2022-11-27T02:06:28.562Z,102175.88
2022-11-27T02:09:31.538Z,102170.72
2022-11-27T02:12:45.819Z,102180.31
2022-11-27T02:16:17.802Z,102176.63
2022-11-27T02:19:57.887Z,102175.34
2022-11-27T02:23:18.280Z,102181.84
2022-11-27T02:26:29.610Z,102182.81
2022-11-27T02:29:34.076Z,102184.28
2022-11-27T02:32:42.413Z,102177.31
2022-11-27T02:35:47.551Z,102175.97
2022-11-27T02:39:12.437Z,102173.16
2022-11-27T02:42:20.287Z,102165.03
2022-11-27T02:45:28.506Z,102183.09
2022-11-27T02:48:34.978Z,102187.44
2022-11-27T02:51:41.402Z,102159.06
2022-11-27T02:54:44.567Z,102170.63
2022-11-27T02:57:48.294Z,102178.75
2022-11-27T03:00:50.942Z,102168.25
2022-11-27T03:03:55.862Z,102177.31
2022-11-27T03:07:03.425Z,102179.03
2022-11-27T03:10:19.280Z,102181.00
2022-11-27T03:13:21.795Z,102193.13
2022-11-27T03:16:44.546Z,102188.69
2022-11-27T03:20:10.532Z,102192.16
2022-11-27T03:23:12.946Z,102192.16
2022-11-27T03:26:15.993Z,102192.16
2022-11-27T03:29:22.890Z,102192.16
2022-11-27T03:32:26.448Z,102190.16
2022-11-27T03:35:29.554Z,102188.53
2022-11-27T03:38:31.703Z,102186.28
2022-11-27T03:41:38.538Z,102189.34
2022-11-27T03:44:48.764Z,102195.28
2022-11-27T03:48:11.342Z,102182.00
2022-11-27T03:51:22.263Z,102185.72
2022-11-27T03:54:44.924Z,102191.13
2022-11-27T03:58:07.124Z,102190.31
2022-11-27T04:01:12.224Z,102191.06
2022-11-27T04:04:14.599Z,102173.94
2022-11-27T04:07:17.864Z,102184.38
2022-11-27T04:10:20.398Z,102177.84
2022-11-27T04:13:23.200Z,102175.97
2022-11-27T04:16:25.478Z,102160.84
2022-11-27T04:19:27.990Z,102184.19
2022-11-27T04:22:30.213Z,102198.69
2022-11-27T04:25:32.916Z,102186.53
2022-11-27T04:28:35.145Z,102176.06
2022-11-27T04:31:37.494Z,102183.38
2022-11-27T04:34:39.996Z,102172.53
2022-11-27T04:37:42.442Z,102170.81
2022-11-27T04:40:44.624Z,102186.97
2022-11-27T04:43:47.107Z,102182.56
2022-11-27T04:46:50.056Z,102176.25
2022-11-27T04:49:52.435Z,102175.59
2022-11-27T04:52:54.580Z,102178.78
2022-11-27T04:55:56.951Z,102176.97
2022-11-27T04:58:59.006Z,102182.13
2022-11-27T05:02:01.354Z,102183.28
2022-11-27T05:05:04.309Z,102179.75
2022-11-27T05:08:06.620Z,102176.25
2022-11-27T05:11:12.175Z,102179.75
2022-11-27T05:14:22.646Z,102172.78
2022-11-27T05:17:24.960Z,102180.13
2022-11-27T05:20:27.321Z,102181.94
2022-11-27T05:23:30.280Z,102181.41
2022-11-27T05:26:32.808Z,102172.28
2022-11-27T05:29:35.042Z,102171.25
2022-11-27T05:32:37.768Z,102177.50
2022-11-27T05:35:40.215Z,102187.19
2022-11-27T05:38:42.524Z,102171.97
2022-11-27T05:41:44.703Z,102164.84
2022-11-27T05:44:47.053Z,102170.81
2022-11-27T05:47:49.128Z,102174.53
2022-11-27T05:50:51.539Z,102167.38
2022-11-27T05:53:53.605Z,102174.59
2022-11-27T05:56:55.966Z,102174.97
2022-11-27T05:59:58.767Z,102168.91
2022-11-27T06:03:01.222Z,102166.41
2022-11-27T06:06:11.594Z,102166.84
2022-11-27T06:09:13.929Z,102172.28
2022-11-27T06:12:15.984Z,102160.25
2022-11-27T06:15:18.287Z,102160.88
2022-11-27T06:18:20.292Z,102163.06
2022-11-27T06:21:24.208Z,102160.13
2022-11-27T06:24:26.500Z,102150.72
2022-11-27T06:27:35.819Z,102153.34
2022-11-27T06:30:38.257Z,102152.72
2022-11-27T06:33:41.083Z,102160.88
2022-11-27T06:36:43.223Z,102163.75
2022-11-27T06:39:45.553Z,102175.84
2022-11-27T06:42:47.752Z,102176.47
2022-11-27T06:45:57.186Z,102165.72
2022-11-27T06:48:59.817Z,102158.25
2022-11-27T06:52:02.125Z,102162.13
2022-11-27T06:55:04.406Z,102175.50
2022-11-27T06:58:06.927Z,102164.28
2022-11-27T07:01:12.559Z,102162.00
2022-11-27T07:04:15.372Z,102173.03
2022-11-27T07:07:17.477Z,102166.91
2022-11-27T07:10:19.831Z,102151.94
2022-11-27T07:13:21.840Z,102141.91
2022-11-27T07:16:24.682Z,102152.09
2022-11-27T07:19:26.823Z,102159.50
2022-11-27T07:22:29.118Z,102144.22
2022-11-27T07:25:31.215Z,102160.47
2022-11-27T07:28:33.550Z,102160.63
2022-11-27T07:31:35.668Z,102156.56
2022-11-27T07:34:38.105Z,102154.47
2022-11-27T07:37:40.370Z,102150.31
2022-11-27T07:40:42.718Z,102150.81
2022-11-27T07:43:45.431Z,102158.72
2022-11-27T07:46:47.675Z,102153.41
2022-11-27T07:49:49.767Z,102160.38
2022-11-27T07:52:51.980Z,102162.28
2022-11-27T07:55:54.081Z,102158.84
2022-11-27T07:58:57.451Z,102159.91
2022-11-27T08:01:59.556Z,102154.13
2022-11-27T08:05:01.965Z,102153.22
2022-11-27T08:08:05.033Z,102151.63
2022-11-27T08:11:21.778Z,102151.44
2022-11-27T08:14:23.930Z,102150.72
2022-11-27T08:17:26.218Z,102146.63
2022-11-27T08:20:28.423Z,102152.00
2022-11-27T08:23:30.780Z,102148.91
2022-11-27T08:26:32.873Z,102142.16
2022-11-27T08:29:35.265Z,102136.50
2022-11-27T08:32:42.185Z,102149.09
2022-11-27T08:35:49.022Z,102133.75
2022-11-27T08:38:51.147Z,102161.75
2022-11-27T08:41:54.304Z,102163.91
2022-11-27T08:44:56.550Z,102161.75
2022-11-27T08:47:59.513Z,102150.94
2022-11-27T08:51:07.389Z,102154.88
2022-11-27T08:54:10.742Z,102168.84
2022-11-27T08:57:13.231Z,102162.28
2022-11-27T09:00:16.625Z,102157.97
2022-11-27T09:03:18.856Z,102155.25
2022-11-27T09:06:24.251Z,102168.00
2022-11-27T09:09:26.615Z,102160.97
2022-11-27T09:12:29.498Z,102165.38
2022-11-27T09:15:31.572Z,102180.34
2022-11-27T09:18:34.511Z,102173.59
2022-11-27T09:21:38.787Z,102182.63
2022-11-27T09:24:41.556Z,102178.13
2022-11-27T09:27:43.833Z,102179.13
2022-11-27T09:30:46.297Z,102182.47
2022-11-27T09:33:48.989Z,102183.16
2022-11-27T09:36:51.391Z,102167.38
2022-11-27T09:39:53.469Z,102174.44
2022-11-27T09:43:02.216Z,102174.25
2022-11-27T09:46:09.343Z,102174.56
2022-11-27T09:49:18.716Z,102162.09
2022-11-27T09:52:28.072Z,102162.31
2022-11-27T09:55:46.775Z,102150.91
2022-11-27T09:58:59.698Z,102161.09
2022-11-27T10:02:02.463Z,102159.69
2022-11-27T10:05:14.721Z,102159.44
2022-11-27T10:08:36.015Z,102164.94
2022-11-27T10:11:57.870Z,102160.06
2022-11-27T10:15:18.501Z,102155.69
2022-11-27T10:18:37.049Z,102152.09
2022-11-27T10:22:01.227Z,102151.50
2022-11-27T10:25:21.772Z,102132.25
2022-11-27T10:28:51.422Z,102137.09
2022-11-27T10:32:04.430Z,102144.88
2022-11-27T10:35:20.783Z,102132.28
2022-11-27T10:38:26.688Z,102128.06
2022-11-27T10:41:48.668Z,102113.78
2022-11-27T10:45:02.033Z,102128.69
2022-11-27T10:48:04.694Z,102082.22
2022-11-27T10:51:21.948Z,102114.84
2022-11-27T10:54:31.960Z,102129.59
2022-11-27T10:57:57.238Z,102122.78
2022-11-27T11:01:05.605Z,102113.63
2022-11-27T11:04:35.759Z,102111.16
2022-11-27T11:07:31.960Z,102120.84
2022-11-27T11:10:36.828Z,102115.06
2022-11-27T11:13:41.914Z,102119.03
2022-11-27T11:16:44.990Z,102116.19
2022-11-27T11:19:47.451Z,102112.63
2022-11-27T11:22:49.770Z,102096.47
2022-11-27T11:25:54.521Z,102114.94
2022-11-27T11:28:59.634Z,102108.41
2022-11-27T11:32:11.577Z,102107.19
2022-11-27T11:35:29.331Z,102095.53
2022-11-27T11:38:32.438Z,102091.16
2022-11-27T11:41:39.234Z,102103.44
2022-11-27T11:44:42.277Z,102101.53
2022-11-27T11:47:49.762Z,102104.56
2022-11-27T11:51:16.709Z,102118.09
2022-11-27T11:54:18.768Z,102107.81
2022-11-27T11:57:40.101Z,102112.34
2022-11-27T12:01:25.050Z,102107.75
2022-11-27T12:04:17.726Z,102106.91
2022-11-27T12:07:38.432Z,102096.03
2022-11-27T12:10:54.952Z,102101.03
2022-11-27T12:14:07.175Z,102088.38
2022-11-27T12:17:36.045Z,102081.91
2022-11-27T12:20:41.252Z,102093.13
2022-11-27T12:23:55.392Z,102085.41
2022-11-27T12:27:30.951Z,102087.41
2022-11-27T12:31:03.071Z,102093.91
2022-11-27T12:34:49.813Z,102082.38
2022-11-27T12:38:08.200Z,102081.69
2022-11-27T12:41:25.446Z,102072.81
2022-11-27T12:45:02.071Z,102082.78
2022-11-27T12:48:16.780Z,102075.81
2022-11-27T12:51:27.426Z,102089.03
2022-11-27T12:54:40.823Z,102077.53
2022-11-27T12:58:30.058Z,102083.91
2022-11-27T13:01:44.043Z,102071.63
2022-11-27T13:05:07.375Z,102083.22
2022-11-27T13:08:16.862Z,102074.22
2022-11-27T13:11:20.883Z,102070.66
2022-11-27T13:14:25.824Z,102067.22
2022-11-27T13:17:36.226Z,102071.56
2022-11-27T13:20:40.195Z,102055.53
2022-11-27T13:23:42.920Z,102048.13
2022-11-27T13:26:52.712Z,102061.22
2022-11-27T13:29:58.654Z,102044.88
2022-11-27T13:33:02.000Z,102061.50
2022-11-27T13:36:07.181Z,102074.63
2022-11-27T13:39:28.584Z,102062.22
2022-11-27T13:42:36.246Z,102073.75
2022-11-27T13:45:41.799Z,102081.13
2022-11-27T13:49:05.284Z,102050.78
2022-11-27T13:52:17.434Z,102076.97
2022-11-27T13:55:28.509Z,102073.09
2022-11-27T13:58:37.087Z,102066.72
2022-11-27T14:01:39.800Z,102071.16
2022-11-27T14:04:56.405Z,102066.16
2022-11-27T14:07:59.820Z,102057.28
2022-11-27T14:11:08.801Z,102034.63
2022-11-27T14:14:25.526Z,102051.63
2022-11-27T14:17:55.418Z,102058.69
2022-11-27T14:32:05.492Z,102051.19
2022-11-27T14:32:59.602Z,102055.13
2022-11-27T14:36:47.475Z,102060.19
2022-11-27T14:40:12.362Z,102056.44
2022-11-27T14:44:22.501Z,102060.88
2022-11-27T15:12:30.394Z,102025.09
2022-11-27T15:15:50.903Z,102030.97
2022-11-27T15:19:04.012Z,102032.75
2022-11-27T15:28:14.576Z,102037.19
2022-11-27T15:38:41.951Z,102042.19
2022-11-27T15:42:03.592Z,102021.50
2022-11-27T15:45:10.390Z,102037.56
2022-11-27T15:48:15.471Z,102043.59
2022-11-27T15:52:31.916Z,102042.69
2022-11-27T15:56:19.169Z,102036.38
2022-11-27T16:09:17.012Z,102036.06
2022-11-27T16:13:18.978Z,102031.78
2022-11-27T16:26:06.979Z,102010.97
2022-11-27T16:29:54.888Z,102018.25
2022-11-27T16:34:33.355Z,102019.78
2022-11-27T16:39:00.319Z,102023.28
2022-11-27T17:06:56.990Z,102005.94
2022-11-27T17:09:59.485Z,102005.78
2022-11-27T17:13:02.388Z,102005.09
2022-11-27T17:16:06.781Z,101994.59
2022-11-27T17:19:13.762Z,102000.31
2022-11-27T17:22:16.676Z,102004.53
2022-11-27T17:25:19.449Z,101993.84
2022-11-27T17:28:21.923Z,101998.22
2022-11-27T17:31:32.798Z,101984.53
2022-11-27T17:34:35.259Z,101982.59
2022-11-27T17:37:38.952Z,101985.50
2022-11-27T17:40:41.215Z,101977.59
2022-11-27T17:43:44.065Z,101974.00
2022-11-27T17:46:50.078Z,101983.84
2022-11-27T17:49:54.562Z,101982.13
2022-11-27T17:52:56.893Z,101980.31
2022-11-27T17:56:05.753Z,101980.53
2022-11-27T17:59:08.143Z,101971.53
2022-11-27T18:02:12.113Z,101972.06
2022-11-27T18:05:15.099Z,101971.69
2022-11-27T18:08:18.350Z,101974.91
2022-11-27T18:11:22.801Z,101966.88
2022-11-27T18:14:26.027Z,101969.50
2022-11-27T18:17:29.009Z,101965.13
2022-11-27T18:20:31.735Z,101962.88
2022-11-27T18:23:33.899Z,101953.72
2022-11-27T18:27:06.594Z,101956.44
2022-11-27T18:29:58.981Z,101961.81
2022-11-27T18:33:03.469Z,101951.25
2022-11-27T18:36:07.231Z,101953.81
2022-11-27T18:39:09.794Z,101960.47
2022-11-27T18:42:12.557Z,101946.97
2022-11-27T18:45:31.652Z,101932.91
2022-11-27T18:48:36.194Z,101938.69
2022-11-27T18:51:39.175Z,101936.75
2022-11-27T18:54:44.383Z,101932.25
2022-11-27T18:57:47.483Z,101954.78
2022-11-27T19:00:52.836Z,101949.97
2022-11-27T19:03:55.959Z,101943.72
2022-11-27T19:06:58.674Z,101935.81
2022-11-27T19:10:02.184Z,101941.22
2022-11-27T19:13:04.493Z,101952.44
2022-11-27T19:16:11.773Z,101946.56
2022-11-27T19:19:53.780Z,101945.63
2022-11-27T19:22:42.267Z,101946.53
2022-11-27T19:25:45.503Z,101937.78
2022-11-27T19:28:51.903Z,101944.25
2022-11-27T19:31:56.254Z,101945.28
2022-11-27T19:35:01.902Z,101936.16
2022-11-27T19:38:08.283Z,101944.41
2022-11-27T19:41:14.065Z,101935.53
2022-11-27T19:44:17.664Z,101914.06
2022-11-27T19:47:20.361Z,101925.84
2022-11-27T19:50:22.626Z,101930.41
2022-11-27T19:53:26.147Z,101934.34
2022-11-27T19:56:32.513Z,101920.78
2022-11-27T19:59:35.589Z,101922.81
2022-11-27T20:02:38.078Z,101927.09
2022-11-27T20:05:40.789Z,101930.78
2022-11-27T20:08:47.651Z,101927.09
2022-11-27T20:11:50.335Z,101944.31
2022-11-27T20:14:53.081Z,101940.63
2022-11-27T20:17:55.723Z,101934.38
2022-11-27T20:21:06.344Z,101932.81
2022-11-27T20:24:17.934Z,101944.97
2022-11-27T20:27:20.671Z,101944.69
2022-11-27T20:30:23.630Z,101948.28
2022-11-27T20:33:27.634Z,101951.91
2022-11-27T20:36:31.783Z,101939.72
2022-11-27T20:39:35.277Z,101926.44
2022-11-27T20:42:38.097Z,101920.19
2022-11-27T20:45:41.514Z,101932.84
2022-11-27T20:48:49.177Z,101927.09
2022-11-27T20:51:52.818Z,101925.44
2022-11-27T20:54:58.052Z,101927.25
2022-11-27T20:58:00.537Z,101912.00
2022-11-27T21:01:16.853Z,101911.09
2022-11-27T21:04:24.987Z,101899.50
2022-11-27T21:07:28.979Z,101937.16
2022-11-27T21:10:31.724Z,101932.84
2022-11-27T21:13:36.444Z,101939.78
2022-11-27T21:16:42.141Z,101930.19
2022-11-27T21:19:45.634Z,101927.50
2022-11-27T21:22:47.943Z,101932.22
2022-11-27T21:25:50.574Z,101937.47
2022-11-27T21:28:53.320Z,101933.00
2022-11-27T21:31:57.268Z,101923.94
2022-11-27T21:34:59.819Z,101928.44
2022-11-27T21:38:02.370Z,101924.84
2022-11-27T21:41:04.867Z,101935.03
2022-11-27T21:44:07.689Z,101926.00
2022-11-27T21:47:12.309Z,101927.84
2022-11-27T21:50:15.300Z,101909.66
2022-11-27T21:53:17.555Z,101921.69
2022-11-27T21:56:22.399Z,101911.91
2022-11-27T21:59:24.537Z,101924.56
2022-11-27T22:02:27.226Z,101917.47
2022-11-27T22:05:30.135Z,101919.47
2022-11-27T22:11:53.404Z,101903.31
2022-11-27T22:14:56.172Z,101912.47
2022-11-27T22:18:18.444Z,101908.03
2022-11-27T22:21:20.917Z,101907.88
2022-11-27T22:24:23.610Z,101890.88
2022-11-27T22:27:28.137Z,101898.81
2022-11-27T22:30:30.351Z,101872.78
2022-11-27T22:33:35.329Z,101908.63
2022-11-27T22:36:37.581Z,101910.53
2022-11-27T22:39:40.266Z,101881.25
2022-11-27T22:42:42.689Z,101884.97
2022-11-27T22:45:48.258Z,101882.28
2022-11-27T22:49:00.649Z,101888.88
2022-11-27T22:52:03.521Z,101895.78
2022-11-27T22:55:06.061Z,101887.81
2022-11-27T22:58:08.459Z,101891.50
2022-11-27T23:01:17.064Z,101880.63
2022-11-27T23:04:19.953Z,101872.59
2022-11-27T23:07:25.178Z,101870.22
2022-11-27T23:10:28.158Z,101878.41
2022-11-27T23:13:30.187Z,101868.56
2022-11-27T23:16:33.831Z,101865.75
2022-11-27T23:19:36.893Z,101860.53
2022-11-27T23:22:39.460Z,101867.69
2022-11-27T23:25:41.765Z,101882.34
2022-11-27T23:28:44.444Z,101845.44
2022-11-27T23:31:46.721Z,101862.47
2022-11-27T23:34:49.246Z,101872.19
2022-11-27T23:37:51.557Z,101849.66
2022-11-27T23:40:54.045Z,101864.91
2022-11-27T23:43:56.396Z,101866.63
2022-11-27T23:46:58.910Z,101864.28
2022-11-27T23:50:01.241Z,101875.91
2022-11-27T23:53:03.688Z,101854.19
2022-11-27T23:56:09.197Z,101864.00
2022-11-27T23:59:12.199Z,101839.66
